Time;durP1;ratioP1;P1;durP2;ratioP2;P2;SDS_P1;SDS_P2;PMS_P1;PMS_P2;Temp;Humidity;BMP_temperature;BMP_pressure;BME280_temperature;BME280_humidity;BME280_pressure;Samples;Min_cycle;Max_cycle;Signal;HPM_P1;HPM_P2
2022/09/19 00:01:10;;;;;;;;;;;10.50;99.90;;;;;;5077875;28;19920;-58
2022/09/19 00:03:36;;;;;;;;;;;10.60;99.90;;;;;;5078495;28;20003;-58
2022/09/19 00:06:03;;;;;;;;;;;10.60;99.90;;;;;;5078733;28;19923;-59
2022/09/19 00:08:29;;;;;;;;;;;10.70;99.90;;;;;;5078389;28;19919;-58
2022/09/19 00:10:55;;;;;;;;;;;10.80;99.90;;;;;;5078370;28;19908;-58
2022/09/19 00:13:21;;;;;;;;;;;10.80;99.90;;;;;;5077472;28;19999;-58
2022/09/19 00:15:48;;;;;;;;;;;10.80;99.90;;;;;;5077414;28;19916;-58
2022/09/19 00:18:14;;;;;;;;;;;10.70;99.90;;;;;;5078212;28;20284;-57
2022/09/19 00:20:49;;;;;;;;;;;10.80;99.90;;;;;;5078138;28;19951;-58
2022/09/19 00:26:03;;;;;;;;;;;10.60;99.90;;;;;;5078085;28;19916;-57
2022/09/19 00:28:29;;;;;;;;;;;10.50;99.90;;;;;;5078265;28;19908;-57
2022/09/19 00:30:55;;;;;;;;;;;10.50;99.90;;;;;;5077368;28;19931;-57
2022/09/19 00:33:22;;;;;;;;;;;10.50;99.90;;;;;;5078552;28;20299;-58
2022/09/19 00:35:54;;;;;;;;;;;10.50;99.90;;;;;;5077772;28;20008;-58
2022/09/19 00:38:21;;;;;;;;;;;10.50;99.90;;;;;;5078450;28;19998;-60
2022/09/19 00:40:47;;;;;;;;;;;10.50;99.90;;;;;;5077788;28;19961;-58
2022/09/19 00:43:13;;;;;;;;;;;10.50;99.90;;;;;;5077139;28;19919;-57
2022/09/19 00:45:43;;;;;;;;;;;10.50;99.90;;;;;;5077762;28;19919;-57
2022/09/19 00:48:10;;;;;;;;;;;10.50;99.90;;;;;;5077775;28;19919;-58
2022/09/19 00:50:36;;;;;;;;;;;10.60;99.90;;;;;;5077747;28;19908;-57
2022/09/19 00:53:11;;;;;;;;;;;10.60;99.90;;;;;;5077598;28;20018;-57
2022/09/19 00:55:39;;;;;;;;;;;10.60;99.90;;;;;;5076768;28;19912;-58
2022/09/19 00:58:11;;;;;;;;;;;10.50;99.90;;;;;;5077589;28;19908;-62
2022/09/19 01:00:37;;;;;;;;;;;10.50;99.90;;;;;;5078148;28;19912;-57
2022/09/19 01:03:05;;;;;;;;;;;10.40;99.90;;;;;;5077801;28;19908;-58
2022/09/19 01:05:37;;;;;;;;;;;10.40;99.90;;;;;;5077488;28;19915;-58
2022/09/19 01:08:16;;;;;;;;;;;10.30;99.90;;;;;;5077394;28;19908;-59
2022/09/19 01:11:04;;;;;;;;;;;10.30;99.90;;;;;;5077548;28;19915;-57
2022/09/19 01:13:40;;;;;;;;;;;10.30;99.90;;;;;;5068056;22;19985;-58
2022/09/19 01:16:09;;;;;;;;;;;10.30;99.90;;;;;;5060269;28;19942;-58
2022/09/19 01:18:40;;;;;;;;;;;10.20;99.90;;;;;;5076720;28;19908;-58
2022/09/19 01:24:04;;;;;;;;;;;10.20;99.90;;;;;;5076578;28;19982;-58
2022/09/19 01:26:46;;;;;;;;;;;10.30;99.90;;;;;;5077243;28;19908;-58
2022/09/19 01:29:16;;;;;;;;;;;10.30;99.90;;;;;;5059844;28;19938;-58
2022/09/19 01:31:44;;;;;;;;;;;10.30;99.90;;;;;;5059747;28;19948;-58
2022/09/19 01:34:15;;;;;;;;;;;10.40;99.90;;;;;;5077302;28;19908;-58
2022/09/19 01:37:12;;;;;;;;;;;10.50;99.90;;;;;;5077135;28;19912;-58
2022/09/19 01:39:40;;;;;;;;;;;10.70;99.90;;;;;;5051770;28;19916;-58
2022/09/19 01:42:06;;;;;;;;;;;10.70;99.90;;;;;;5059748;28;19982;-58
2022/09/19 01:44:32;;;;;;;;;;;10.80;99.90;;;;;;5077155;28;19920;-60
2022/09/19 01:47:22;;;;;;;;;;;10.90;99.90;;;;;;5076325;28;19924;-58
2022/09/19 01:49:52;;;;;;;;;;;10.90;99.90;;;;;;5077102;28;20340;-58
2022/09/19 01:52:29;;;;;;;;;;;10.80;99.90;;;;;;5076285;28;19919;-58
2022/09/19 01:55:13;;;;;;;;;;;10.90;99.90;;;;;;5076242;28;19908;-59
2022/09/19 01:57:47;;;;;;;;;;;10.80;99.90;;;;;;5059436;28;19923;-57
2022/09/19 02:00:18;;;;;;;;;;;10.70;99.90;;;;;;5076158;28;19908;-58
2022/09/19 02:02:56;;;;;;;;;;;10.70;99.90;;;;;;5076279;28;19987;-57
2022/09/19 02:05:35;;;;;;;;;;;10.60;99.90;;;;;;5059437;28;19909;-57
2022/09/19 02:08:29;;;;;;;;;;;10.60;99.90;;;;;;5076103;28;19914;-57
2022/09/19 02:11:03;;;;;;;;;;;10.70;99.90;;;;;;5053814;28;19908;-57
2022/09/19 02:13:36;;;;;;;;;;;10.70;99.90;;;;;;5076011;28;20239;-57
2022/09/19 02:16:08;;;;;;;;;;;10.70;99.90;;;;;;5059355;28;19912;-58
2022/09/19 02:18:35;;;;;;;;;;;10.70;99.90;;;;;;5076715;28;20000;-58
2022/09/19 02:21:05;;;;;;;;;;;10.70;99.90;;;;;;5059661;28;20295;-58
2022/09/19 02:23:33;;;;;;;;;;;10.80;99.90;;;;;;5077592;28;19963;-57
2022/09/19 02:26:02;;;;;;;;;;;10.90;99.90;;;;;;5059580;28;19919;-58
2022/09/19 02:28:33;;;;;;;;;;;11.00;99.90;;;;;;5076883;28;20250;-57
2022/09/19 02:31:01;;;;;;;;;;;11.00;99.90;;;;;;5062887;28;20219;-57
2022/09/19 02:33:35;;;;;;;;;;;11.10;99.90;;;;;;5080294;28;19931;-58
2022/09/19 02:36:16;;;;;;;;;;;11.10;99.90;;;;;;5079387;28;19912;-57
2022/09/19 02:39:00;;;;;;;;;;;11.00;99.90;;;;;;5079464;28;19961;-58
2022/09/19 02:41:57;;;;;;;;;;;11.00;99.90;;;;;;5079541;28;19962;-58
2022/09/19 02:44:36;;;;;;;;;;;10.90;99.90;;;;;;5079291;28;19909;-57
2022/09/19 02:47:11;;;;;;;;;;;10.90;99.90;;;;;;5079428;28;19951;-58
2022/09/19 02:49:48;;;;;;;;;;;11.00;99.90;;;;;;5063136;28;19919;-57
2022/09/19 02:52:24;;;;;;;;;;;10.80;99.90;;;;;;5080298;28;19908;-58
2022/09/19 02:54:55;;;;;;;;;;;10.70;99.90;;;;;;5079885;28;19908;-57
2022/09/19 02:57:22;;;;;;;;;;;10.60;99.90;;;;;;5078939;28;19912;-58
2022/09/19 02:59:49;;;;;;;;;;;10.50;99.90;;;;;;5079808;28;20238;-57
2022/09/19 03:02:18;;;;;;;;;;;10.50;99.90;;;;;;5078981;28;19972;-58
2022/09/19 03:04:46;;;;;;;;;;;10.50;99.90;;;;;;5079698;28;19908;-57
2022/09/19 03:07:24;;;;;;;;;;;10.50;99.90;;;;;;5078945;28;20184;-58
2022/09/19 03:10:24;;;;;;;;;;;10.50;99.90;;;;;;5079953;28;19965;-57
2022/09/19 03:13:02;;;;;;;;;;;10.40;99.90;;;;;;5061938;28;20184;-57
2022/09/19 03:15:32;;;;;;;;;;;10.40;99.90;;;;;;5078770;28;19919;-58
2022/09/19 03:18:01;;;;;;;;;;;10.40;99.90;;;;;;5078757;28;19915;-58
2022/09/19 03:20:27;;;;;;;;;;;10.40;99.90;;;;;;5078636;28;19908;-57
2022/09/19 03:22:53;;;;;;;;;;;10.30;99.90;;;;;;5061957;28;19912;-57
2022/09/19 03:25:20;;;;;;;;;;;10.30;99.90;;;;;;5078523;28;19913;-57
2022/09/19 03:27:49;;;;;;;;;;;10.40;99.90;;;;;;5079267;28;20343;-57
2022/09/19 03:30:16;;;;;;;;;;;10.40;99.90;;;;;;5078543;28;19908;-57
2022/09/19 03:32:42;;;;;;;;;;;10.30;99.90;;;;;;5061708;28;19958;-57
2022/09/19 03:35:10;;;;;;;;;;;10.40;99.90;;;;;;5061696;28;19919;-57
2022/09/19 03:37:36;;;;;;;;;;;10.30;99.90;;;;;;5078291;28;20299;-57
2022/09/19 03:40:02;;;;;;;;;;;10.30;99.90;;;;;;5061350;28;19916;-58
2022/09/19 03:42:29;;;;;;;;;;;10.20;99.90;;;;;;5061329;28;20218;-58
2022/09/19 03:44:55;;;;;;;;;;;10.20;99.90;;;;;;5078126;28;19908;-58
2022/09/19 03:47:21;;;;;;;;;;;10.20;99.90;;;;;;5078743;28;19969;-58
2022/09/19 03:49:50;;;;;;;;;;;10.20;99.90;;;;;;5061210;28;20331;-58
2022/09/19 03:52:16;;;;;;;;;;;10.10;99.90;;;;;;5061219;28;19939;-60
2022/09/19 03:54:46;;;;;;;;;;;10.00;99.90;;;;;;5077939;28;20203;-58
2022/09/19 03:57:12;;;;;;;;;;;10.10;99.90;;;;;;5078476;28;20216;-58
2022/09/19 03:59:39;;;;;;;;;;;10.20;99.90;;;;;;5078526;28;19909;-57
2022/09/19 04:02:06;;;;;;;;;;;10.20;99.90;;;;;;5077734;28;19908;-58
2022/09/19 04:04:32;;;;;;;;;;;10.20;99.90;;;;;;5078469;28;20015;-57
2022/09/19 04:06:58;;;;;;;;;;;10.20;99.90;;;;;;5061010;28;20009;-58
2022/09/19 04:09:25;;;;;;;;;;;10.20;99.90;;;;;;5060963;28;19919;-58
2022/09/19 04:11:56;;;;;;;;;;;10.20;99.90;;;;;;5077331;28;19985;-58
2022/09/19 04:14:22;;;;;;;;;;;10.20;99.90;;;;;;5078054;28;19916;-58
2022/09/19 04:16:48;;;;;;;;;;;10.20;99.90;;;;;;5078400;28;20180;-59
2022/09/19 04:19:14;;;;;;;;;;;10.20;99.90;;;;;;5077442;28;20007;-58
2022/09/19 04:21:48;;;;;;;;;;;10.20;99.90;;;;;;5077416;28;19914;-58
2022/09/19 04:24:31;;;;;;;;;;;10.20;99.90;;;;;;5060640;28;19908;-58
2022/09/19 04:27:17;;;;;;;;;;;10.20;99.90;;;;;;5056680;28;19912;-58
2022/09/19 04:29:43;;;;;;;;;;;10.10;99.90;;;;;;5060622;28;19923;-58
2022/09/19 04:32:09;;;;;;;;;;;10.10;99.90;;;;;;5060422;28;20018;-57
2022/09/19 04:34:35;;;;;;;;;;;10.10;99.90;;;;;;5077302;28;19908;-58
2022/09/19 04:37:03;;;;;;;;;;;10.10;99.90;;;;;;5076913;28;19955;-58
2022/09/19 04:39:30;;;;;;;;;;;10.00;99.90;;;;;;5067679;22;19970;-58
2022/09/19 04:41:56;;;;;;;;;;;10.10;99.90;;;;;;5077365;28;19916;-59
2022/09/19 04:44:27;;;;;;;;;;;10.10;99.90;;;;;;5076795;28;19912;-58
2022/09/19 04:47:06;;;;;;;;;;;10.00;99.90;;;;;;5077678;28;19919;-58
2022/09/19 04:49:39;;;;;;;;;;;9.90;99.90;;;;;;5060244;28;19908;-58
2022/09/19 04:52:06;;;;;;;;;;;9.80;99.90;;;;;;5076229;28;19912;-59
2022/09/19 04:54:37;;;;;;;;;;;9.80;99.90;;;;;;5077438;28;20284;-58
2022/09/19 04:57:05;;;;;;;;;;;9.80;99.90;;;;;;5060052;28;19977;-61
2022/09/19 04:59:35;;;;;;;;;;;9.80;99.90;;;;;;5043683;28;19931;-58
2022/09/19 05:02:02;;;;;;;;;;;9.70;99.90;;;;;;5059933;28;19908;-58
2022/09/19 05:04:29;;;;;;;;;;;9.70;99.90;;;;;;5060010;28;19923;-57
2022/09/19 05:06:54;;;;;;;;;;;9.80;99.90;;;;;;5076596;28;19918;-58
2022/09/19 05:09:22;;;;;;;;;;;9.70;99.90;;;;;;5059854;28;19923;-58
2022/09/19 05:12:09;;;;;;;;;;;9.80;99.90;;;;;;5062933;28;20229;-59
2022/09/19 05:14:39;;;;;;;;;;;9.70;99.90;;;;;;5060017;28;20226;-59
2022/09/19 05:17:06;;;;;;;;;;;9.70;99.90;;;;;;5059733;28;19973;-58
2022/09/19 05:19:36;;;;;;;;;;;9.70;99.90;;;;;;5059801;28;19912;-60
2022/09/19 05:22:03;;;;;;;;;;;9.80;99.90;;;;;;5076534;28;19913;-58
2022/09/19 05:24:29;;;;;;;;;;;9.80;99.90;;;;;;5077413;28;20319;-57
2022/09/19 05:26:56;;;;;;;;;;;9.80;99.90;;;;;;5077127;28;19908;-59
2022/09/19 05:29:22;;;;;;;;;;;9.90;99.90;;;;;;5059761;28;19908;-59
2022/09/19 05:32:04;;;;;;;;;;;9.90;99.90;;;;;;5076487;28;19912;-58
2022/09/19 05:34:42;;;;;;;;;;;10.00;99.90;;;;;;5076470;28;19908;-59
2022/09/19 05:37:44;;;;;;;;;;;10.00;99.90;;;;;;5043698;28;19916;-60
2022/09/19 05:40:32;;;;;;;;;;;10.10;99.90;;;;;;5059732;28;20193;-58
2022/09/19 05:43:09;;;;;;;;;;;10.20;99.90;;;;;;5059751;28;19923;-60
2022/09/19 05:45:35;;;;;;;;;;;10.40;99.90;;;;;;5059685;28;19912;-59
2022/09/19 05:48:01;;;;;;;;;;;10.50;99.90;;;;;;5077098;28;19919;-59
2022/09/19 05:50:28;;;;;;;;;;;10.50;99.90;;;;;;5076071;28;19939;-59
2022/09/19 05:55:39;;;;;;;;;;;10.50;99.90;;;;;;5076121;28;19912;-59
2022/09/19 05:58:17;;;;;;;;;;;10.60;99.90;;;;;;5077213;28;20229;-59
2022/09/19 06:00:43;;;;;;;;;;;10.60;99.90;;;;;;5076148;28;20006;-58
2022/09/19 06:03:11;;;;;;;;;;;10.70;99.90;;;;;;5059590;28;19909;-59
2022/09/19 06:05:38;;;;;;;;;;;10.80;99.90;;;;;;5080676;28;19912;-58
2022/09/19 06:08:04;;;;;;;;;;;10.70;99.90;;;;;;5064307;28;19905;-58
2022/09/19 06:10:32;;;;;;;;;;;10.70;99.90;;;;;;5063346;28;19913;-58
2022/09/19 06:12:58;;;;;;;;;;;10.80;99.90;;;;;;5080630;28;19912;-58
2022/09/19 06:15:24;;;;;;;;;;;10.70;99.90;;;;;;5079798;28;20203;-58
2022/09/19 06:17:57;;;;;;;;;;;10.60;99.90;;;;;;5063133;28;19959;-57
2022/09/19 06:20:38;;;;;;;;;;;10.50;99.90;;;;;;5079709;28;19912;-58
2022/09/19 06:23:09;;;;;;;;;;;10.40;99.90;;;;;;5079746;28;20276;-58
2022/09/19 06:25:36;;;;;;;;;;;10.40;99.90;;;;;;5063001;28;19913;-59
2022/09/19 06:28:07;;;;;;;;;;;10.60;99.90;;;;;;5080667;28;20268;-60
2022/09/19 06:30:35;;;;;;;;;;;10.60;99.90;;;;;;5063003;28;19956;-60
2022/09/19 06:33:18;;;;;;;;;;;10.40;99.90;;;;;;5062980;28;19962;-59
2022/09/19 06:36:10;;;;;;;;;;;10.40;99.90;;;;;;5075694;28;20342;-59
2022/09/19 06:38:37;;;;;;;;;;;10.50;99.90;;;;;;5079592;28;19919;-59
2022/09/19 06:41:23;;;;;;;;;;;10.60;99.90;;;;;;5080277;28;19946;-59
2022/09/19 06:44:09;;;;;;;;;;;10.80;99.90;;;;;;5079706;28;19912;-58
2022/09/19 06:46:54;;;;;;;;;;;10.80;99.90;;;;;;5079419;28;19976;-60
2022/09/19 06:49:30;;;;;;;;;;;11.00;99.90;;;;;;5080025;28;19978;-59
2022/09/19 06:52:22;;;;;;;;;;;11.10;99.90;;;;;;5077834;28;19993;-60
2022/09/19 06:54:49;;;;;;;;;;;11.20;99.90;;;;;;5079403;28;20276;-59
2022/09/19 06:57:15;;;;;;;;;;;11.30;99.90;;;;;;5079021;28;20027;-60
2022/09/19 06:59:43;;;;;;;;;;;11.40;99.90;;;;;;5062275;28;19912;-59
2022/09/19 07:02:09;;;;;;;;;;;11.50;99.90;;;;;;5062349;28;19909;-60
2022/09/19 07:04:35;;;;;;;;;;;11.70;99.90;;;;;;5079676;28;20221;-60
2022/09/19 07:07:10;;;;;;;;;;;11.90;99.90;;;;;;5062584;28;19913;-60
2022/09/19 07:09:44;;;;;;;;;;;11.90;99.90;;;;;;5062054;28;20292;-59
2022/09/19 07:12:11;;;;;;;;;;;11.90;99.90;;;;;;5078843;28;19912;-59
2022/09/19 07:14:38;;;;;;;;;;;11.90;99.90;;;;;;5078716;28;20280;-60
2022/09/19 07:17:04;;;;;;;;;;;12.00;99.90;;;;;;5077850;28;19917;-60
2022/09/19 07:19:30;;;;;;;;;;;12.20;99.90;;;;;;5061975;28;20339;-60
2022/09/19 07:22:16;;;;;;;;;;;12.40;99.90;;;;;;5079294;28;19962;-60
2022/09/19 07:25:02;;;;;;;;;;;12.50;99.90;;;;;;5078928;28;20199;-61
2022/09/19 07:27:31;;;;;;;;;;;12.90;99.90;;;;;;5062564;28;20307;-60
2022/09/19 07:29:57;;;;;;;;;;;12.90;99.90;;;;;;5078499;28;19948;-60
2022/09/19 07:32:23;;;;;;;;;;;13.00;99.90;;;;;;5061766;28;20181;-60
2022/09/19 07:34:49;;;;;;;;;;;13.20;99.90;;;;;;5079140;28;19922;-61
2022/09/19 07:37:15;;;;;;;;;;;13.10;99.90;;;;;;5061659;28;19916;-62
2022/09/19 07:39:44;;;;;;;;;;;13.20;99.90;;;;;;5061938;28;20019;-61
2022/09/19 07:42:20;;;;;;;;;;;13.30;99.90;;;;;;5062848;28;19982;-67
2022/09/19 07:45:08;;;;;;;;;;;13.40;99.90;;;;;;5068181;28;20247;-61
2022/09/19 07:48:00;;;;;;;;;;;13.40;99.90;;;;;;5048036;28;19912;-60
2022/09/19 07:50:47;;;;;;;;;;;13.30;99.90;;;;;;5078582;28;19994;-61
2022/09/19 07:53:19;;;;;;;;;;;13.40;99.90;;;;;;5078744;28;20015;-61
2022/09/19 07:55:51;;;;;;;;;;;13.80;99.90;;;;;;5061113;28;19908;-62
2022/09/19 07:58:18;;;;;;;;;;;14.30;99.90;;;;;;5077910;28;19965;-61
2022/09/19 08:00:48;;;;;;;;;;;14.60;99.90;;;;;;5078112;28;19908;-60
2022/09/19 08:03:34;;;;;;;;;;;14.80;99.90;;;;;;5078478;28;20007;-61
2022/09/19 08:06:02;;;;;;;;;;;14.90;99.90;;;;;;5077619;28;20255;-60
2022/09/19 08:08:30;;;;;;;;;;;15.30;99.90;;;;;;5077703;28;19920;-60
2022/09/19 08:11:00;;;;;;;;;;;15.40;99.90;;;;;;5060941;28;19923;-61
2022/09/19 08:13:29;;;;;;;;;;;15.60;99.90;;;;;;5061034;28;19912;-62
2022/09/19 08:15:55;;;;;;;;;;;15.60;99.90;;;;;;5077412;28;19908;-59
2022/09/19 08:18:26;;;;;;;;;;;15.80;99.90;;;;;;5077577;28;20337;-59
2022/09/19 08:20:53;;;;;;;;;;;15.80;99.90;;;;;;5060906;28;19916;-60
2022/09/19 08:23:20;;;;;;;;;;;16.00;99.90;;;;;;5077404;28;20014;-61
2022/09/19 08:25:48;;;;;;;;;;;15.90;99.90;;;;;;5077351;28;20201;-60
2022/09/19 08:28:16;;;;;;;;;;;15.70;99.90;;;;;;5060696;28;19947;-61
2022/09/19 08:30:43;;;;;;;;;;;15.70;99.90;;;;;;5077320;28;20267;-61
2022/09/19 08:33:10;;;;;;;;;;;15.80;99.90;;;;;;5077270;28;19908;-60
2022/09/19 08:35:37;;;;;;;;;;;15.70;99.90;;;;;;5077197;28;19923;-60
2022/09/19 08:38:06;;;;;;;;;;;15.90;99.90;;;;;;5077672;28;20255;-60
2022/09/19 08:40:44;;;;;;;;;;;15.90;99.90;;;;;;5077023;28;20180;-60
2022/09/19 08:43:14;;;;;;;;;;;15.90;99.90;;;;;;5060646;28;20252;-59
2022/09/19 08:46:04;;;;;;;;;;;16.20;99.90;;;;;;5076994;28;19964;-60
2022/09/19 08:48:49;;;;;;;;;;;16.50;99.90;;;;;;5076908;28;19908;-61
2022/09/19 08:51:41;;;;;;;;;;;16.90;99.90;;;;;;5076926;28;19909;-61
2022/09/19 08:54:11;;;;;;;;;;;16.40;99.90;;;;;;5045042;28;20280;-60
2022/09/19 08:56:38;;;;;;;;;;;16.40;99.90;;;;;;5077827;28;20284;-60
2022/09/19 08:59:06;;;;;;;;;;;16.70;99.90;;;;;;5060200;28;19968;-59
2022/09/19 09:01:43;;;;;;;;;;;16.80;99.90;;;;;;5060178;28;20295;-59
2022/09/19 09:04:27;;;;;;;;;;;17.10;99.90;;;;;;5077013;28;20239;-57
2022/09/19 09:06:59;;;;;;;;;;;17.40;99.90;;;;;;5060511;28;19916;-58
2022/09/19 09:09:45;;;;;;;;;;;17.70;99.90;;;;;;5076713;28;19969;-59
2022/09/19 09:12:40;;;;;;;;;;;18.00;99.90;;;;;;5060060;28;19944;-62
2022/09/19 09:15:17;;;;;;;;;;;18.00;99.90;;;;;;5038779;28;20200;-59
2022/09/19 09:18:13;;;;;;;;;;;18.10;99.90;;;;;;5077370;28;20224;-64
2022/09/19 09:20:48;;;;;;;;;;;18.10;99.90;;;;;;5023443;28;19909;-64
2022/09/19 09:23:17;;;;;;;;;;;17.80;99.90;;;;;;5076563;28;19909;-69
2022/09/19 09:26:02;;;;;;;;;;;17.50;99.90;;;;;;5062129;28;20316;-60
2022/09/19 09:28:49;;;;;;;;;;;17.10;99.90;;;;;;5076417;28;19909;-61
2022/09/19 09:31:27;;;;;;;;;;;16.60;99.90;;;;;;5060737;28;19908;-64
2022/09/19 09:34:14;;;;;;;;;;;16.50;99.90;;;;;;5059919;28;20272;-69
2022/09/19 09:36:45;;;;;;;;;;;16.40;99.90;;;;;;5059640;28;19912;-67
2022/09/19 09:39:20;;;;;;;;;;;16.30;99.90;;;;;;5077866;28;19920;-67
2022/09/19 09:41:51;;;;;;;;;;;16.30;99.90;;;;;;5080621;28;20195;-63
2022/09/19 09:44:20;;;;;;;;;;;16.80;99.90;;;;;;5080437;28;19952;-66
2022/09/19 09:46:53;;;;;;;;;;;17.00;99.90;;;;;;5080477;28;19942;-66
2022/09/19 09:49:22;;;;;;;;;;;16.90;99.90;;;;;;5064627;28;19920;-68
2022/09/19 09:52:06;;;;;;;;;;;17.10;99.90;;;;;;5081083;28;19912;-65
2022/09/19 09:57:40;;;;;;;;;;;17.60;99.90;;;;;;5063553;28;19913;-66
2022/09/19 10:05:57;;;;;;;;;;;18.10;99.90;;;;;;5063781;28;20318;-65
2022/09/19 10:08:29;;;;;;;;;;;18.40;99.90;;;;;;5063312;28;19909;-67
2022/09/19 10:11:09;;;;;;;;;;;18.50;99.90;;;;;;5080042;28;19916;-65
2022/09/19 10:13:39;;;;;;;;;;;18.60;99.90;;;;;;5079966;28;19908;-65
2022/09/19 10:16:06;;;;;;;;;;;18.40;99.90;;;;;;5063138;28;19912;-68
2022/09/19 10:18:45;;;;;;;;;;;18.30;99.90;;;;;;5079869;28;20280;-66
2022/09/19 10:21:15;;;;;;;;;;;18.30;99.90;;;;;;5079786;28;19908;-67
2022/09/19 10:23:48;;;;;;;;;;;18.10;99.90;;;;;;5063170;28;20191;-67
2022/09/19 10:26:25;;;;;;;;;;;18.10;99.90;;;;;;5063918;28;19908;-67
2022/09/19 10:28:59;;;;;;;;;;;18.20;99.90;;;;;;5063073;28;19919;-65
2022/09/19 10:31:46;;;;;;;;;;;18.20;99.90;;;;;;5079954;28;19912;-64
2022/09/19 10:34:30;;;;;;;;;;;18.20;99.90;;;;;;5079547;28;19912;-66
2022/09/19 10:36:59;;;;;;;;;;;18.20;99.90;;;;;;5079419;28;19965;-65
2022/09/19 10:39:25;;;;;;;;;;;18.30;99.90;;;;;;5062635;28;19999;-64
2022/09/19 10:41:51;;;;;;;;;;;18.50;99.90;;;;;;5062705;28;20013;-64
2022/09/19 10:44:27;;;;;;;;;;;18.80;99.90;;;;;;5079319;28;20011;-65
2022/09/19 10:46:58;;;;;;;;;;;19.10;99.90;;;;;;5046154;28;19918;-65
2022/09/19 10:49:28;;;;;;;;;;;19.50;99.90;;;;;;5079726;28;19918;-64
2022/09/19 10:51:59;;;;;;;;;;;20.20;99.90;;;;;;5061780;28;20352;-58
2022/09/19 10:54:25;;;;;;;;;;;20.60;99.90;;;;;;5062501;28;19916;-58
2022/09/19 10:56:58;;;;;;;;;;;21.00;99.90;;;;;;5078906;28;20287;-59
2022/09/19 10:59:25;;;;;;;;;;;20.90;99.90;;;;;;5079767;28;20284;-58
2022/09/19 11:02:08;;;;;;;;;;;20.40;99.90;;;;;;5078806;28;19908;-58
2022/09/19 11:04:35;;;;;;;;;;;19.90;99.90;;;;;;5078870;28;19909;-58
2022/09/19 11:07:02;;;;;;;;;;;19.60;99.90;;;;;;5062245;28;19981;-59
2022/09/19 11:09:34;;;;;;;;;;;19.70;99.90;;;;;;5078857;28;19998;-59
2022/09/19 11:12:05;;;;;;;;;;;19.60;99.90;;;;;;5062228;28;20020;-58
2022/09/19 11:14:36;;;;;;;;;;;19.50;99.90;;;;;;5078671;28;20262;-58
2022/09/19 11:17:20;;;;;;;;;;;19.20;99.90;;;;;;5062124;28;19923;-58
2022/09/19 11:19:53;;;;;;;;;;;19.00;99.90;;;;;;5078657;28;19908;-58
2022/09/19 11:22:36;;;;;;;;;;;18.70;99.90;;;;;;5078900;28;19912;-58
2022/09/19 11:25:26;;;;;;;;;;;18.50;99.90;;;;;;5061863;28;19995;-58
2022/09/19 11:27:52;;;;;;;;;;;19.10;99.90;;;;;;5078481;28;19908;-59
2022/09/19 11:30:26;;;;;;;;;;;20.00;99.90;;;;;;5061678;28;19916;-58
2022/09/19 11:33:00;;;;;;;;;;;19.70;99.90;;;;;;5078433;28;19943;-58
2022/09/19 11:35:58;;;;;;;;;;;19.50;99.90;;;;;;5064884;28;19986;-58
2022/09/19 11:38:26;;;;;;;;;;;19.80;99.90;;;;;;5078244;28;19916;-59
2022/09/19 11:41:07;;;;;;;;;;;21.30;99.90;;;;;;5078409;28;20012;-59
2022/09/19 11:43:42;;;;;;;;;;;23.20;99.90;;;;;;5061768;28;19922;-59
2022/09/19 11:46:23;;;;;;;;;;;25.10;99.90;;;;;;5078214;28;19913;-59
2022/09/19 11:48:54;;;;;;;;;;;26.80;99.90;;;;;;5078210;28;19917;-58
2022/09/19 11:51:40;;;;;;;;;;;26.10;99.90;;;;;;5078033;28;19909;-60
2022/09/19 11:54:15;;;;;;;;;;;24.50;99.90;;;;;;5061156;28;19908;-60
2022/09/19 11:57:06;;;;;;;;;;;23.10;99.90;;;;;;5077894;28;19955;-60
2022/09/19 11:59:35;;;;;;;;;;;22.30;99.90;;;;;;5078563;28;19908;-58
2022/09/19 12:02:31;;;;;;;;;;;21.60;99.90;;;;;;5077763;28;19961;-59
2022/09/19 12:05:01;;;;;;;;;;;21.00;99.90;;;;;;5078755;28;19908;-58
2022/09/19 12:07:31;;;;;;;;;;;20.70;99.90;;;;;;5077972;28;19912;-66
2022/09/19 12:10:35;;;;;;;;;;;20.50;99.90;;;;;;5061343;28;20268;-67
2022/09/19 12:13:15;;;;;;;;;;;20.40;99.90;;;;;;5039401;28;19937;-67
2022/09/19 12:15:48;;;;;;;;;;;20.50;99.90;;;;;;5044812;28;19909;-65
2022/09/19 12:18:17;;;;;;;;;;;20.40;99.90;;;;;;5061067;28;20203;-67
2022/09/19 12:20:45;;;;;;;;;;;20.30;99.90;;;;;;5060774;28;19916;-67
2022/09/19 12:26:04;;;;;;;;;;;20.10;99.90;;;;;;5061073;28;19908;-69
2022/09/19 12:28:32;;;;;;;;;;;20.80;99.90;;;;;;5077353;28;20330;-67
2022/09/19 12:31:02;;;;;;;;;;;21.70;99.90;;;;;;5077150;28;19923;-68
2022/09/19 12:33:50;;;;;;;;;;;22.00;99.90;;;;;;5077435;28;20315;-68
2022/09/19 12:36:32;;;;;;;;;;;21.70;99.90;;;;;;5077030;28;19912;-66
2022/09/19 12:39:10;;;;;;;;;;;21.60;99.90;;;;;;5060544;28;19916;-67
2022/09/19 12:41:42;;;;;;;;;;;21.50;99.90;;;;;;5078316;28;19908;-67
2022/09/19 12:44:21;;;;;;;;;;;21.40;99.90;;;;;;5077071;28;19957;-71
2022/09/19 12:46:54;;;;;;;;;;;21.40;99.90;;;;;;5077031;28;19908;-67
2022/09/19 12:49:30;;;;;;;;;;;21.50;99.90;;;;;;5060546;28;19916;-67
2022/09/19 12:52:10;;;;;;;;;;;22.30;99.90;;;;;;5077648;28;19948;-67
2022/09/19 12:55:00;;;;;;;;;;;23.10;99.90;;;;;;5077566;28;19908;-66
2022/09/19 12:57:31;;;;;;;;;;;22.80;99.90;;;;;;5055122;28;19939;-67
2022/09/19 12:59:57;;;;;;;;;;;22.20;99.90;;;;;;5060207;28;19916;-66
2022/09/19 13:02:34;;;;;;;;;;;21.60;99.90;;;;;;5077834;28;19924;-66
2022/09/19 13:05:07;;;;;;;;;;;21.40;99.90;;;;;;5077515;28;19908;-65
2022/09/19 13:07:38;;;;;;;;;;;21.00;99.90;;;;;;5077414;28;19908;-66
2022/09/19 13:10:07;;;;;;;;;;;21.00;99.90;;;;;;5077210;28;19915;-67
2022/09/19 13:12:41;;;;;;;;;;;21.60;99.90;;;;;;5077294;28;19916;-69
2022/09/19 13:15:13;;;;;;;;;;;22.30;99.90;;;;;;5077267;28;19908;-70
2022/09/19 13:23:32;;;;;;;;;;;21.70;99.90;;;;;;5077591;28;19954;-69
2022/09/19 13:26:20;;;;;;;;;;;21.40;99.90;;;;;;5077400;28;19923;-64
2022/09/19 13:28:52;;;;;;;;;;;21.30;99.90;;;;;;5077217;28;20284;-63
2022/09/19 13:31:18;;;;;;;;;;;21.00;99.90;;;;;;5077242;28;20012;-64
2022/09/19 13:33:48;;;;;;;;;;;20.60;99.90;;;;;;5077243;28;20330;-64
2022/09/19 13:36:15;;;;;;;;;;;20.40;99.90;;;;;;5077333;28;19912;-64
2022/09/19 13:38:48;;;;;;;;;;;20.00;99.90;;;;;;5076965;28;20295;-64
2022/09/19 13:41:23;;;;;;;;;;;20.60;99.90;;;;;;5077255;28;19908;-67
2022/09/19 13:43:53;;;;;;;;;;;21.90;99.90;;;;;;5077430;28;19912;-67
2022/09/19 13:46:30;;;;;;;;;;;23.20;99.90;;;;;;5077639;28;20176;-68
2022/09/19 13:49:15;;;;;;;;;;;24.60;99.90;;;;;;5077126;28;19938;-66
2022/09/19 13:51:42;;;;;;;;;;;26.10;99.90;;;;;;5076645;28;19943;-69
2022/09/19 13:54:21;;;;;;;;;;;26.90;99.90;;;;;;5077215;28;19908;-67
2022/09/19 13:57:03;;;;;;;;;;;27.70;99.90;;;;;;5060174;28;19912;-67
2022/09/19 13:59:44;;;;;;;;;;;27.80;97.70;;;;;;5076885;28;19960;-67
2022/09/19 14:02:15;;;;;;;;;;;26.50;98.30;;;;;;5077088;28;20294;-66
2022/09/19 14:04:56;;;;;;;;;;;27.00;98.70;;;;;;5077434;28;19909;-67
2022/09/19 14:07:25;;;;;;;;;;;27.40;96.90;;;;;;5077220;28;20181;-67
2022/09/19 14:10:20;;;;;;;;;;;28.50;94.90;;;;;;5077024;28;19908;-67
2022/09/19 14:12:49;;;;;;;;;;;29.20;92.30;;;;;;5063987;28;19908;-71
2022/09/19 14:15:29;;;;;;;;;;;30.30;87.60;;;;;;5077630;28;19908;-68
2022/09/19 14:18:10;;;;;;;;;;;30.10;84.60;;;;;;5076440;28;20005;-73
2022/09/19 14:20:46;;;;;;;;;;;29.60;85.60;;;;;;5077012;28;20211;-69
2022/09/19 14:23:12;;;;;;;;;;;30.60;83.00;;;;;;5077712;28;20172;-68
2022/09/19 14:25:38;;;;;;;;;;;31.20;78.50;;;;;;5079430;28;20199;-65
2022/09/19 14:28:12;;;;;;;;;;;31.00;75.20;;;;;;5081539;28;19908;-69
2022/09/19 14:30:43;;;;;;;;;;;29.60;78.70;;;;;;5081145;28;19912;-68
2022/09/19 14:33:12;;;;;;;;;;;28.50;80.00;;;;;;5080389;28;20319;-70
2022/09/19 14:35:45;;;;;;;;;;;28.50;80.90;;;;;;5064556;28;19912;-68
2022/09/19 14:38:31;;;;;;;;;;;28.20;79.70;;;;;;5080011;28;19916;-72
2022/09/19 14:41:05;;;;;;;;;;;27.90;81.10;;;;;;5080929;28;19912;-72
2022/09/19 14:43:49;;;;;;;;;;;27.80;81.10;;;;;;5064772;28;19912;-67
2022/09/19 14:46:20;;;;;;;;;;;27.70;78.50;;;;;;5080464;28;19908;-68
2022/09/19 14:48:54;;;;;;;;;;;27.10;79.80;;;;;;5079687;28;19908;-69
2022/09/19 14:51:34;;;;;;;;;;;27.60;79.80;;;;;;5081334;28;19909;-72
2022/09/19 14:54:09;;;;;;;;;;;28.00;79.20;;;;;;5081249;28;19943;-69
2022/09/19 14:56:35;;;;;;;;;;;28.30;77.40;;;;;;5080291;28;19920;-69
2022/09/19 14:59:01;;;;;;;;;;;28.80;78.30;;;;;;5062899;28;19919;-43
2022/09/19 15:01:30;;;;;;;;;;;30.00;75.20;;;;;;5080055;28;20007;-64
2022/09/19 15:04:13;;;;;;;;;;;30.10;72.90;;;;;;5079027;28;19912;-64
2022/09/19 15:06:51;;;;;;;;;;;31.00;73.40;;;;;;5079820;28;19923;-64
2022/09/19 15:09:27;;;;;;;;;;;31.80;69.80;;;;;;5079770;28;19909;-64
2022/09/19 15:11:57;;;;;;;;;;;32.10;67.40;;;;;;5079764;28;19912;-65
2022/09/19 15:14:24;;;;;;;;;;;31.90;65.60;;;;;;5080133;28;19926;-63
2022/09/19 15:17:09;;;;;;;;;;;30.70;68.30;;;;;;5062140;28;19922;-69
2022/09/19 15:19:37;;;;;;;;;;;29.80;68.90;;;;;;5079762;28;19909;-65